createdAt,value
2023-05-15T00:00:26.041Z,7.07
2023-05-15T00:02:52.951Z,7.87
2023-05-15T00:05:21.295Z,8.17
2023-05-15T00:07:48.017Z,8.13
2023-05-15T00:10:14.780Z,8.33
2023-05-15T00:12:41.548Z,8.67
2023-05-15T00:15:08.777Z,8.30
2023-05-15T00:17:35.465Z,8.50
2023-05-15T00:20:02.373Z,8.67
2023-05-15T00:22:29.141Z,9.60
2023-05-15T00:24:55.856Z,9.30
2023-05-15T00:27:22.613Z,9.50
2023-05-15T00:29:49.260Z,9.30
2023-05-15T00:32:15.959Z,8.70
2023-05-15T00:34:42.708Z,10.03
2023-05-15T00:37:09.451Z,9.83
2023-05-15T00:39:36.539Z,9.10
2023-05-15T00:42:04.820Z,9.50
2023-05-15T00:44:32.226Z,9.77
2023-05-15T00:47:01.113Z,10.53
2023-05-15T00:49:29.649Z,10.00
2023-05-15T00:52:02.095Z,10.43
2023-05-15T00:54:28.797Z,10.97
2023-05-15T00:56:59.760Z,11.13
2023-05-15T00:59:28.471Z,10.80
2023-05-15T01:01:55.417Z,10.73
2023-05-15T01:04:22.861Z,10.40
2023-05-15T01:06:50.050Z,10.50
2023-05-15T01:09:19.152Z,10.43
2023-05-15T01:11:47.485Z,10.40
2023-05-15T01:14:14.192Z,12.10
2023-05-15T01:16:41.594Z,10.47
2023-05-15T01:19:08.383Z,11.40
2023-05-15T01:21:35.098Z,11.70
2023-05-15T01:24:20.183Z,12.23
2023-05-15T01:27:32.558Z,12.93
2023-05-15T01:30:07.969Z,13.30
2023-05-15T01:32:58.544Z,13.67
2023-05-15T01:35:33.772Z,14.23
2023-05-15T01:38:15.617Z,15.00
2023-05-15T01:40:45.919Z,17.37
2023-05-15T01:43:18.450Z,16.93
2023-05-15T01:45:45.180Z,17.23
2023-05-15T01:48:13.921Z,17.20
2023-05-15T01:50:42.877Z,17.53
2023-05-15T01:53:11.171Z,17.20
2023-05-15T01:55:39.034Z,18.37
2023-05-15T01:58:06.047Z,18.33
2023-05-15T02:00:33.261Z,17.40
2023-05-15T02:03:01.063Z,17.97
2023-05-15T02:05:29.362Z,17.87
2023-05-15T02:07:56.811Z,17.53
2023-05-15T02:10:24.112Z,18.53
2023-05-15T02:12:51.369Z,18.20
2023-05-15T02:15:19.211Z,18.77
2023-05-15T02:17:46.003Z,18.77
2023-05-15T02:20:12.912Z,19.87
2023-05-15T02:22:39.665Z,19.23
2023-05-15T02:25:06.534Z,18.67
2023-05-15T02:27:51.681Z,19.30
2023-05-15T02:30:32.789Z,19.33
2023-05-15T02:33:14.756Z,20.03
2023-05-15T02:35:47.447Z,20.47
2023-05-15T02:38:20.635Z,18.43
2023-05-15T02:40:48.768Z,18.20
2023-05-15T02:43:19.322Z,19.33
2023-05-15T02:45:47.971Z,18.80
2023-05-15T02:48:17.165Z,20.33
2023-05-15T02:50:44.206Z,20.17
2023-05-15T02:53:10.939Z,20.63
2023-05-15T02:55:38.124Z,20.20
2023-05-15T02:58:05.126Z,20.40
2023-05-15T03:00:31.935Z,19.63
2023-05-15T03:02:58.787Z,20.27
2023-05-15T03:05:26.233Z,21.90
2023-05-15T03:07:53.217Z,20.17
2023-05-15T03:10:23.676Z,20.30
2023-05-15T03:12:50.453Z,20.70
2023-05-15T03:15:17.264Z,18.97
2023-05-15T03:17:44.796Z,21.07
2023-05-15T03:20:11.556Z,21.43
2023-05-15T03:22:38.330Z,21.03
2023-05-15T03:25:05.354Z,20.63
2023-05-15T03:27:31.989Z,20.80
2023-05-15T03:29:58.666Z,21.50
2023-05-15T03:32:25.442Z,20.53
2023-05-15T03:34:52.055Z,19.47
2023-05-15T03:37:18.825Z,20.30
2023-05-15T03:39:45.674Z,20.03
2023-05-15T03:42:12.376Z,19.93
2023-05-15T03:44:39.084Z,18.83
2023-05-15T03:47:06.282Z,18.63
2023-05-15T03:49:32.994Z,19.83
2023-05-15T03:51:59.726Z,19.00
2023-05-15T03:54:26.491Z,21.20
2023-05-15T03:56:53.320Z,20.27
2023-05-15T03:59:19.977Z,19.67
2023-05-15T04:02:03.031Z,19.43
2023-05-15T04:04:30.655Z,19.67
2023-05-15T04:06:57.459Z,20.40
2023-05-15T04:09:24.123Z,21.27
2023-05-15T04:11:50.794Z,21.03
2023-05-15T04:14:17.452Z,21.77
2023-05-15T04:16:44.298Z,21.33
2023-05-15T04:19:11.220Z,21.07
2023-05-15T04:21:38.026Z,21.90
2023-05-15T04:24:04.932Z,20.57
2023-05-15T04:26:34.593Z,19.87
2023-05-15T04:29:04.553Z,20.17
2023-05-15T04:31:34.885Z,20.37
2023-05-15T04:34:01.662Z,22.17
2023-05-15T04:36:28.312Z,23.50
2023-05-15T04:38:54.918Z,25.33
2023-05-15T04:41:22.219Z,26.20
2023-05-15T04:43:48.883Z,26.37
2023-05-15T04:46:16.224Z,25.30
2023-05-15T04:48:42.856Z,26.37
2023-05-15T04:51:09.559Z,27.00
2023-05-15T04:53:36.445Z,27.67
2023-05-15T04:56:03.213Z,27.40
2023-05-15T04:58:29.872Z,28.40
2023-05-15T05:00:56.616Z,28.30
2023-05-15T05:03:23.305Z,28.50
2023-05-15T05:05:50.037Z,28.20
2023-05-15T05:08:16.729Z,27.63
2023-05-15T05:10:43.390Z,27.60
2023-05-15T05:13:10.164Z,28.13
2023-05-15T05:15:37.659Z,27.53
2023-05-15T05:18:04.860Z,26.77
2023-05-15T05:20:31.606Z,26.77
2023-05-15T05:22:58.291Z,26.93
2023-05-15T05:25:25.197Z,26.73
2023-05-15T05:27:52.414Z,25.20
2023-05-15T05:30:19.145Z,25.50
2023-05-15T05:32:45.924Z,25.00
2023-05-15T05:35:12.648Z,24.90
2023-05-15T05:37:41.294Z,22.57
2023-05-15T05:40:09.033Z,22.17
2023-05-15T05:42:35.768Z,20.53
2023-05-15T05:45:07.731Z,20.27
2023-05-15T05:47:34.394Z,19.63
2023-05-15T05:50:01.145Z,20.37
2023-05-15T05:52:29.084Z,19.27
2023-05-15T05:54:55.737Z,19.93
2023-05-15T05:57:22.533Z,19.43
2023-05-15T05:59:49.843Z,19.60
2023-05-15T06:02:16.577Z,19.23
2023-05-15T06:04:43.243Z,18.87
2023-05-15T06:07:10.002Z,17.93
2023-05-15T06:09:36.645Z,18.20
2023-05-15T06:12:04.904Z,18.20
2023-05-15T06:14:31.667Z,18.07
2023-05-15T06:16:58.323Z,16.47
2023-05-15T06:19:25.017Z,16.43
2023-05-15T06:21:51.729Z,15.33
2023-05-15T06:24:18.612Z,15.97
2023-05-15T06:26:45.390Z,12.77
2023-05-15T06:29:12.067Z,13.30
2023-05-15T06:31:38.717Z,10.97
2023-05-15T06:34:05.396Z,10.70
2023-05-15T06:36:32.103Z,10.80
2023-05-15T06:38:58.739Z,10.48
2023-05-15T06:41:25.626Z,9.65
2023-05-15T06:43:55.562Z,9.30
2023-05-15T06:46:22.343Z,9.02
2023-05-15T06:48:49.055Z,9.43
2023-05-15T06:51:15.901Z,9.90
2023-05-15T06:53:42.982Z,8.35
2023-05-15T06:56:09.940Z,7.93
2023-05-15T06:58:36.673Z,7.78
2023-05-15T07:01:03.945Z,7.80
2023-05-15T07:03:30.813Z,7.10
2023-05-15T07:05:57.480Z,6.68
2023-05-15T07:08:24.321Z,6.78
2023-05-15T07:10:51.498Z,6.03
2023-05-15T07:13:20.979Z,7.07
2023-05-15T07:15:47.756Z,6.43
2023-05-15T07:18:14.490Z,6.88
2023-05-15T07:20:41.187Z,7.00
2023-05-15T07:23:07.974Z,6.32
2023-05-15T07:25:34.747Z,5.63
2023-05-15T07:28:01.434Z,5.40
2023-05-15T07:30:28.355Z,5.63
2023-05-15T07:32:55.441Z,5.10
2023-05-15T07:35:22.347Z,6.05
2023-05-15T07:37:49.114Z,4.72
2023-05-15T07:40:15.868Z,5.20
2023-05-15T07:42:44.155Z,6.00
2023-05-15T07:45:13.013Z,5.13
2023-05-15T07:47:45.053Z,5.07
2023-05-15T07:50:11.741Z,5.30
2023-05-15T07:52:38.435Z,4.88
2023-05-15T07:55:07.099Z,5.60
2023-05-15T07:57:33.823Z,4.60
2023-05-15T08:00:02.442Z,5.15
2023-05-15T08:02:29.135Z,4.80
2023-05-15T08:04:56.039Z,4.97
2023-05-15T08:07:22.758Z,4.75
2023-05-15T08:09:49.664Z,4.88
2023-05-15T08:12:22.720Z,5.10
2023-05-15T08:14:51.126Z,5.13
2023-05-15T08:17:18.246Z,5.22
2023-05-15T08:19:45.126Z,5.10
2023-05-15T08:22:11.892Z,5.55
2023-05-15T08:24:39.422Z,5.13
2023-05-15T08:27:07.101Z,4.50
2023-05-15T08:29:35.625Z,4.57
2023-05-15T08:32:03.745Z,4.28
2023-05-15T08:34:30.401Z,3.95
2023-05-15T08:36:59.265Z,4.00
2023-05-15T08:39:26.092Z,4.22
2023-05-15T08:42:03.375Z,4.30
2023-05-15T08:44:30.976Z,4.20
2023-05-15T08:46:58.105Z,3.72
2023-05-15T08:49:44.295Z,3.40
2023-05-15T08:52:11.064Z,4.10
2023-05-15T08:54:39.716Z,3.65
2023-05-15T08:57:07.344Z,3.88
2023-05-15T08:59:34.123Z,3.75
2023-05-15T09:02:01.119Z,3.63
2023-05-15T09:04:27.910Z,3.42
2023-05-15T09:06:58.948Z,3.83
2023-05-15T09:09:27.735Z,3.30
2023-05-15T09:11:54.733Z,3.47
2023-05-15T09:14:21.520Z,3.70
2023-05-15T09:16:51.079Z,3.25
2023-05-15T09:19:20.960Z,3.20
2023-05-15T09:21:47.728Z,3.50
2023-05-15T09:24:18.936Z,3.47
2023-05-15T09:26:47.217Z,3.38
2023-05-15T09:29:18.813Z,3.13
2023-05-15T09:31:49.743Z,3.40
2023-05-15T09:34:16.628Z,3.22
2023-05-15T09:36:46.608Z,3.60
2023-05-15T09:39:13.350Z,3.47
2023-05-15T09:41:44.071Z,3.58
2023-05-15T09:44:24.819Z,3.40
2023-05-15T09:46:52.516Z,3.22
2023-05-15T09:49:26.804Z,4.05
2023-05-15T09:51:58.082Z,3.67
2023-05-15T09:54:27.436Z,3.45
2023-05-15T09:56:54.336Z,3.40
2023-05-15T09:59:24.561Z,3.97
2023-05-15T10:01:55.510Z,3.20
2023-05-15T10:04:22.215Z,3.50
2023-05-15T10:06:49.399Z,3.88
2023-05-15T10:09:16.413Z,3.65
2023-05-15T10:11:49.370Z,3.80
2023-05-15T10:14:17.892Z,3.70
2023-05-15T10:16:45.575Z,3.67
2023-05-15T10:19:13.697Z,3.92
2023-05-15T10:21:41.909Z,3.65
2023-05-15T10:24:09.126Z,3.85
2023-05-15T10:26:40.613Z,4.10
2023-05-15T10:29:10.797Z,3.97
2023-05-15T10:31:38.991Z,3.72
2023-05-15T10:34:06.763Z,3.67
2023-05-15T10:36:35.326Z,3.60
2023-05-15T10:39:06.612Z,3.40
2023-05-15T10:41:36.597Z,3.13
2023-05-15T10:44:03.241Z,3.47
2023-05-15T10:46:33.360Z,3.35
2023-05-15T10:49:01.748Z,3.63
2023-05-15T10:51:31.531Z,3.70
2023-05-15T10:54:01.231Z,3.30
2023-05-15T10:56:32.439Z,3.20
2023-05-15T10:59:07.156Z,3.53
2023-05-15T11:01:41.416Z,3.58
2023-05-15T11:04:11.267Z,3.05
2023-05-15T11:06:40.998Z,3.55
2023-05-15T11:09:26.586Z,3.45
2023-05-15T11:11:57.905Z,3.78
2023-05-15T11:14:26.671Z,4.28
2023-05-15T11:16:53.562Z,4.30
2023-05-15T11:19:44.523Z,3.90
2023-05-15T11:22:14.158Z,3.80
2023-05-15T11:25:06.840Z,3.90
2023-05-15T11:27:45.642Z,3.10
2023-05-15T11:30:26.470Z,3.13
2023-05-15T11:32:59.344Z,3.58
2023-05-15T11:35:47.306Z,3.30
2023-05-15T11:38:17.680Z,3.35
2023-05-15T11:40:50.376Z,3.28
2023-05-15T11:43:36.512Z,3.30
2023-05-15T11:46:03.168Z,3.38
2023-05-15T11:48:43.076Z,3.83
2023-05-15T11:51:30.192Z,3.78
2023-05-15T11:53:58.163Z,3.70
2023-05-15T11:56:28.382Z,3.33
2023-05-15T11:58:57.192Z,3.10
2023-05-15T12:01:24.517Z,3.13
2023-05-15T12:03:54.425Z,2.92
2023-05-15T12:06:21.991Z,2.83
2023-05-15T12:08:53.065Z,2.90
2023-05-15T12:11:24.234Z,3.10
2023-05-15T12:13:54.998Z,3.10
2023-05-15T12:16:28.594Z,3.22
2023-05-15T12:18:58.925Z,3.20
2023-05-15T12:21:28.933Z,3.40
2023-05-15T12:26:26.715Z,3.65
2023-05-15T12:28:54.465Z,3.13
2023-05-15T12:31:21.731Z,2.80
2023-05-15T12:33:48.726Z,2.92
2023-05-15T12:36:15.528Z,3.60
2023-05-15T12:38:42.305Z,2.70
2023-05-15T12:41:12.041Z,2.40
2023-05-15T12:43:38.871Z,2.78
2023-05-15T12:46:05.646Z,2.75
2023-05-15T12:48:32.970Z,3.08
2023-05-15T12:51:07.440Z,3.20
2023-05-15T12:53:34.651Z,2.95
2023-05-15T12:56:01.728Z,2.88
2023-05-15T12:58:28.458Z,2.88
2023-05-15T13:00:57.050Z,2.83
2023-05-15T13:03:25.099Z,3.08
2023-05-15T13:05:52.521Z,3.00
2023-05-15T13:08:19.635Z,3.20
2023-05-15T13:10:47.701Z,2.78
2023-05-15T13:13:15.502Z,3.28
2023-05-15T13:15:45.863Z,2.72
2023-05-15T13:18:17.523Z,2.90
2023-05-15T13:20:45.384Z,2.50
2023-05-15T13:23:15.048Z,2.85
2023-05-15T13:25:42.511Z,2.88
2023-05-15T13:28:12.878Z,2.53
2023-05-15T13:30:41.891Z,2.75
2023-05-15T13:33:10.826Z,2.53
2023-05-15T13:35:39.068Z,2.85
2023-05-15T13:38:06.524Z,2.70
2023-05-15T13:40:37.041Z,2.78
2023-05-15T13:43:03.748Z,2.78
2023-05-15T13:45:30.624Z,2.83
2023-05-15T13:47:57.322Z,3.25
2023-05-15T13:50:24.188Z,2.72
2023-05-15T13:52:51.127Z,3.67
2023-05-15T13:55:17.768Z,2.63
2023-05-15T13:57:45.735Z,2.88
2023-05-15T14:00:13.778Z,2.92
2023-05-15T14:02:43.051Z,3.40
2023-05-15T14:05:11.529Z,2.95
2023-05-15T14:07:38.324Z,2.88
2023-05-15T14:10:08.958Z,2.83
2023-05-15T14:12:46.651Z,2.78
2023-05-15T14:15:13.324Z,2.53
2023-05-15T14:17:40.111Z,2.92
2023-05-15T14:20:07.654Z,2.55
2023-05-15T14:22:34.286Z,2.55
2023-05-15T14:25:01.040Z,2.63
2023-05-15T14:27:27.792Z,4.10
2023-05-15T14:29:56.586Z,5.10
2023-05-15T14:32:24.908Z,4.50
2023-05-15T14:34:51.848Z,4.60
2023-05-15T14:37:19.401Z,4.22
2023-05-15T14:39:46.718Z,4.18
2023-05-15T14:42:13.406Z,3.80
2023-05-15T14:44:40.099Z,4.43
2023-05-15T14:47:12.761Z,4.22
2023-05-15T14:49:40.352Z,3.55
2023-05-15T14:52:09.730Z,4.07
2023-05-15T14:54:37.484Z,3.85
2023-05-15T14:57:04.519Z,3.78
2023-05-15T14:59:31.512Z,3.58
2023-05-15T15:01:58.288Z,4.07
2023-05-15T15:04:26.686Z,3.53
2023-05-15T15:06:56.885Z,4.00
2023-05-15T15:09:24.265Z,4.22
2023-05-15T15:11:51.380Z,4.18
2023-05-15T15:14:18.195Z,4.47
2023-05-15T15:16:46.059Z,4.38
2023-05-15T15:19:13.556Z,4.50
2023-05-15T15:21:40.516Z,4.28
2023-05-15T15:24:08.346Z,4.20
2023-05-15T15:26:37.634Z,4.10
2023-05-15T15:29:04.286Z,4.40
2023-05-15T15:31:31.767Z,4.88
2023-05-15T15:34:03.633Z,3.80
2023-05-15T15:36:31.864Z,4.47
2023-05-15T15:38:58.550Z,4.30
2023-05-15T15:41:25.411Z,4.63
2023-05-15T15:43:52.451Z,3.70
2023-05-15T15:46:19.282Z,3.83
2023-05-15T15:48:46.179Z,4.72
2023-05-15T15:51:12.832Z,4.00
2023-05-15T15:53:39.687Z,3.55
2023-05-15T15:56:07.450Z,3.85
2023-05-15T15:58:34.144Z,3.92
2023-05-15T16:01:01.258Z,4.00
2023-05-15T16:03:28.105Z,4.32
2023-05-15T16:05:54.951Z,4.20
2023-05-15T16:08:21.686Z,4.30
2023-05-15T16:10:48.486Z,4.38
2023-05-15T16:13:15.167Z,4.10
2023-05-15T16:15:41.816Z,4.30
2023-05-15T16:18:08.472Z,4.10
2023-05-15T16:20:38.199Z,4.10
2023-05-15T16:23:04.925Z,4.57
2023-05-15T16:25:31.834Z,4.70
2023-05-15T16:28:01.485Z,4.28
2023-05-15T16:30:40.056Z,4.03
2023-05-15T16:33:11.505Z,4.65
2023-05-15T16:35:38.347Z,4.57
2023-05-15T16:38:05.101Z,4.30
2023-05-15T16:40:31.813Z,4.45
2023-05-15T16:43:00.969Z,4.72
2023-05-15T16:45:27.822Z,4.80
2023-05-15T16:47:54.558Z,3.95
2023-05-15T16:50:21.450Z,4.43
2023-05-15T16:52:49.016Z,4.70
2023-05-15T16:55:17.837Z,4.13
2023-05-15T16:57:45.517Z,4.43
2023-05-15T17:00:13.522Z,4.18
2023-05-15T17:02:41.830Z,4.40
2023-05-15T17:05:10.468Z,4.67
2023-05-15T17:07:38.020Z,4.68
2023-05-15T17:10:06.117Z,4.95
2023-05-15T17:12:32.995Z,5.65
2023-05-15T17:14:59.817Z,4.80
2023-05-15T17:17:28.714Z,5.13
2023-05-15T17:19:56.316Z,6.03
2023-05-15T17:22:23.540Z,5.80
2023-05-15T17:24:52.201Z,5.73
2023-05-15T17:27:20.605Z,6.43
2023-05-15T17:29:48.085Z,6.60
2023-05-15T17:32:16.865Z,6.07
2023-05-15T17:34:44.024Z,6.17
2023-05-15T17:37:10.916Z,6.63
2023-05-15T17:39:37.672Z,7.37
2023-05-15T17:42:04.446Z,6.43
2023-05-15T17:44:31.306Z,6.40
2023-05-15T17:46:58.484Z,6.63
2023-05-15T17:49:26.150Z,6.17
2023-05-15T17:51:53.495Z,7.00
2023-05-15T17:54:20.557Z,6.67
2023-05-15T17:56:48.205Z,6.87
2023-05-15T17:59:14.829Z,6.30
2023-05-15T18:01:41.692Z,6.60
2023-05-15T18:04:08.690Z,5.90
2023-05-15T18:06:35.594Z,5.27
2023-05-15T18:09:02.684Z,5.17
2023-05-15T18:11:29.422Z,5.10
2023-05-15T18:13:56.132Z,5.30
2023-05-15T18:16:22.854Z,5.47
2023-05-15T18:18:52.005Z,4.83
2023-05-15T18:21:18.947Z,5.43
2023-05-15T18:23:45.673Z,5.40
2023-05-15T18:26:12.436Z,4.63
2023-05-15T18:28:39.144Z,5.00
2023-05-15T18:31:06.019Z,4.73
2023-05-15T18:33:36.808Z,4.30
2023-05-15T18:36:05.910Z,4.57
2023-05-15T18:38:34.091Z,3.73
2023-05-15T18:41:00.740Z,4.10
2023-05-15T18:43:27.578Z,4.50
2023-05-15T18:45:54.703Z,4.73
2023-05-15T18:48:21.358Z,3.87
2023-05-15T18:50:49.552Z,4.30
2023-05-15T18:53:16.484Z,4.10
2023-05-15T18:55:43.264Z,4.43
2023-05-15T18:58:09.969Z,4.50
2023-05-15T19:00:39.013Z,4.57
2023-05-15T19:03:08.985Z,4.47
2023-05-15T19:05:35.849Z,4.90
2023-05-15T19:08:03.158Z,4.23
2023-05-15T19:10:30.585Z,4.00
2023-05-15T19:12:58.213Z,4.40
2023-05-15T19:15:25.584Z,5.20
2023-05-15T19:17:52.686Z,5.07
2023-05-15T19:20:20.119Z,4.90
2023-05-15T19:22:46.885Z,4.80
2023-05-15T19:25:13.573Z,4.80
2023-05-15T19:27:40.390Z,5.20
2023-05-15T19:30:07.916Z,4.87
2023-05-15T19:32:34.787Z,5.37
2023-05-15T19:35:01.837Z,5.17
2023-05-15T19:37:29.038Z,5.20
2023-05-15T19:39:56.924Z,4.57
2023-05-15T19:42:23.887Z,4.57
2023-05-15T19:44:50.842Z,5.10
2023-05-15T19:47:17.524Z,4.57
2023-05-15T19:49:44.157Z,4.50
2023-05-15T19:52:10.839Z,4.77
2023-05-15T19:54:37.484Z,5.10
2023-05-15T19:57:06.274Z,4.63
2023-05-15T19:59:33.049Z,5.10
2023-05-15T20:02:01.589Z,4.83
2023-05-15T20:04:28.970Z,4.93
2023-05-15T20:06:55.748Z,4.70
2023-05-15T20:09:23.613Z,4.77
2023-05-15T20:11:51.059Z,5.30
2023-05-15T20:14:17.860Z,4.73
2023-05-15T20:16:44.773Z,4.30
2023-05-15T20:19:12.461Z,4.93
2023-05-15T20:21:39.421Z,4.73
2023-05-15T20:24:06.986Z,4.87
2023-05-15T20:26:35.996Z,4.53
2023-05-15T20:29:03.538Z,4.70
2023-05-15T20:31:30.332Z,5.23
2023-05-15T20:33:57.001Z,5.03
2023-05-15T20:36:25.518Z,4.67
2023-05-15T20:38:52.820Z,4.83
2023-05-15T20:41:21.538Z,4.50
2023-05-15T20:43:52.442Z,5.10
2023-05-15T20:46:19.322Z,5.50
2023-05-15T20:48:46.241Z,5.07
2023-05-15T20:51:12.864Z,5.03
2023-05-15T20:53:39.552Z,4.70
2023-05-15T20:56:06.506Z,4.83
2023-05-15T20:58:33.447Z,5.20
2023-05-15T21:01:02.899Z,5.03
2023-05-15T21:03:29.917Z,6.00
2023-05-15T21:05:57.465Z,5.20
2023-05-15T21:08:28.545Z,5.33
2023-05-15T21:10:55.563Z,5.50
2023-05-15T21:13:24.940Z,5.03
2023-05-15T21:15:51.700Z,5.27
2023-05-15T21:18:18.968Z,5.37
2023-05-15T21:20:45.890Z,5.47
2023-05-15T21:23:12.586Z,6.00
2023-05-15T21:25:39.970Z,5.93
2023-05-15T21:28:09.497Z,6.63
2023-05-15T21:30:43.465Z,6.33
2023-05-15T21:33:11.030Z,5.27
2023-05-15T21:35:38.328Z,6.20
2023-05-15T21:38:06.441Z,6.10
2023-05-15T21:40:33.109Z,6.17
2023-05-15T21:42:59.736Z,6.77
2023-05-15T21:45:26.458Z,7.47
2023-05-15T21:47:53.249Z,6.33
2023-05-15T21:50:20.021Z,6.97
2023-05-15T21:52:46.766Z,7.77
2023-05-15T21:55:13.425Z,6.57
2023-05-15T21:57:40.470Z,6.33
2023-05-15T22:00:08.335Z,7.53
2023-05-15T22:02:36.322Z,6.90
2023-05-15T22:05:03.909Z,7.10
2023-05-15T22:07:30.577Z,6.50
2023-05-15T22:09:57.329Z,7.17
2023-05-15T22:12:24.014Z,7.00
2023-05-15T22:14:58.283Z,6.07
2023-05-15T22:17:30.290Z,7.03
2023-05-15T22:20:07.358Z,6.67
2023-05-15T22:22:35.887Z,6.47
2023-05-15T22:25:02.745Z,5.70
2023-05-15T22:27:29.457Z,6.73
2023-05-15T22:29:56.503Z,6.40
2023-05-15T22:32:23.787Z,5.30
2023-05-15T22:34:50.480Z,6.50
2023-05-15T22:37:17.345Z,6.03
2023-05-15T22:39:44.085Z,6.17
2023-05-15T22:42:10.742Z,6.40
2023-05-15T22:44:37.436Z,6.03
2023-05-15T22:47:04.288Z,5.80
2023-05-15T22:49:31.167Z,6.23
2023-05-15T22:51:58.108Z,5.60
2023-05-15T22:54:25.014Z,5.30
2023-05-15T22:56:52.680Z,5.30
2023-05-15T22:59:20.062Z,5.37
2023-05-15T23:01:47.545Z,5.67
2023-05-15T23:04:14.759Z,5.50
2023-05-15T23:06:41.667Z,5.03
2023-05-15T23:09:09.118Z,5.40
2023-05-15T23:11:36.194Z,5.40
2023-05-15T23:14:03.519Z,5.27
2023-05-15T23:16:30.890Z,5.07
2023-05-15T23:18:57.929Z,5.03
2023-05-15T23:21:24.820Z,4.97
2023-05-15T23:23:51.630Z,4.97
2023-05-15T23:26:18.334Z,4.67
2023-05-15T23:28:45.012Z,4.70
2023-05-15T23:31:14.090Z,5.27
2023-05-15T23:33:41.160Z,5.17
2023-05-15T23:36:07.984Z,4.70
2023-05-15T23:38:34.705Z,4.73
2023-05-15T23:41:04.061Z,4.63
2023-05-15T23:43:30.771Z,4.47
2023-05-15T23:45:57.585Z,4.50
2023-05-15T23:48:24.377Z,4.53
2023-05-15T23:50:52.379Z,4.90
2023-05-15T23:53:19.233Z,4.30
2023-05-15T23:55:45.997Z,4.97
2023-05-15T23:58:12.718Z,4.23
